createdAt,value
2022-10-29T00:01:28.370Z,89.70
2022-10-29T00:03:55.802Z,89.34
2022-10-29T00:06:23.550Z,90.23
2022-10-29T00:08:50.990Z,91.89
2022-10-29T00:11:21.350Z,90.69
2022-10-29T00:13:53.982Z,90.50
2022-10-29T00:16:24.471Z,90.56
2022-10-29T00:18:52.296Z,90.88
2022-10-29T00:21:23.184Z,93.07
2022-10-29T00:23:51.822Z,90.95
2022-10-29T00:26:21.750Z,91.07
2022-10-29T00:28:52.281Z,90.98
2022-10-29T00:31:20.384Z,91.13
2022-10-29T00:33:48.188Z,90.59
2022-10-29T00:36:21.595Z,89.98
2022-10-29T00:38:51.759Z,90.79
2022-10-29T00:41:23.373Z,91.34
2022-10-29T00:43:51.797Z,90.58
2022-10-29T00:46:30.808Z,91.51
2022-10-29T00:48:59.121Z,92.33
2022-10-29T00:51:30.247Z,91.52
2022-10-29T00:54:03.281Z,91.15
2022-10-29T00:56:35.682Z,92.20
2022-10-29T00:59:03.831Z,91.20
2022-10-29T01:01:31.960Z,91.69
2022-10-29T01:04:02.777Z,91.46
2022-10-29T01:06:31.483Z,92.16
2022-10-29T01:08:59.098Z,92.86
2022-10-29T01:11:45.464Z,91.98
2022-10-29T01:14:34.283Z,91.97
2022-10-29T01:17:11.325Z,90.99
2022-10-29T01:19:53.014Z,92.62
2022-10-29T01:22:44.392Z,92.23
2022-10-29T01:25:32.767Z,92.49
2022-10-29T01:28:13.936Z,91.68
2022-10-29T01:31:13.954Z,91.24
2022-10-29T01:34:20.571Z,92.38
2022-10-29T01:36:50.949Z,91.57
2022-10-29T01:39:27.452Z,93.10
2022-10-29T01:42:02.332Z,92.51
2022-10-29T01:44:42.714Z,91.87
2022-10-29T01:47:19.229Z,92.83
2022-10-29T01:49:51.550Z,94.27
2022-10-29T01:52:21.962Z,92.92
2022-10-29T01:54:49.496Z,92.67
2022-10-29T01:57:43.055Z,92.77
2022-10-29T02:00:14.749Z,93.20
2022-10-29T02:03:00.852Z,93.11
2022-10-29T02:05:34.908Z,93.31
2022-10-29T02:08:14.082Z,93.73
2022-10-29T02:10:55.573Z,94.55
2022-10-29T02:13:30.638Z,94.20
2022-10-29T02:16:00.327Z,95.31
2022-10-29T02:18:27.739Z,93.62
2022-10-29T02:20:55.559Z,95.28
2022-10-29T02:23:22.944Z,94.60
2022-10-29T02:25:50.435Z,93.35
2022-10-29T02:28:18.002Z,94.43
2022-10-29T02:30:45.399Z,93.72
2022-10-29T02:33:15.412Z,93.22
2022-10-29T02:35:42.795Z,95.08
2022-10-29T02:38:10.066Z,94.31
2022-10-29T02:40:37.404Z,96.26
2022-10-29T02:43:04.730Z,94.25
2022-10-29T02:45:32.254Z,94.28
2022-10-29T02:47:59.984Z,94.42
2022-10-29T02:50:27.426Z,95.66
2022-10-29T02:52:54.781Z,94.37
2022-10-29T02:55:22.116Z,94.40
2022-10-29T02:57:49.673Z,93.98
2022-10-29T03:00:17.325Z,95.31
2022-10-29T03:02:44.860Z,94.89
2022-10-29T03:05:12.361Z,94.38
2022-10-29T03:07:39.710Z,94.26
2022-10-29T03:10:08.149Z,93.83
2022-10-29T03:12:35.955Z,93.37
2022-10-29T03:15:03.443Z,94.80
2022-10-29T03:17:30.818Z,93.06
2022-10-29T03:19:58.172Z,93.74
2022-10-29T03:22:25.496Z,93.81
2022-10-29T03:24:52.827Z,94.58
2022-10-29T03:27:20.427Z,93.96
2022-10-29T03:29:47.922Z,94.45
2022-10-29T03:32:15.348Z,94.06
2022-10-29T03:34:42.844Z,94.10
2022-10-29T03:37:10.298Z,93.79
2022-10-29T03:39:37.636Z,95.39
2022-10-29T03:42:05.254Z,93.82
2022-10-29T03:44:32.647Z,93.30
2022-10-29T03:47:00.101Z,95.44
2022-10-29T03:49:28.842Z,85.44
2022-10-29T03:51:59.848Z,81.22
2022-10-29T03:54:33.394Z,82.96
2022-10-29T03:57:00.984Z,76.13
2022-10-29T03:59:28.518Z,72.36
2022-10-29T04:02:02.172Z,79.54
2022-10-29T04:04:30.026Z,76.11
2022-10-29T04:06:57.368Z,72.81
2022-10-29T04:09:25.108Z,74.45
2022-10-29T04:11:53.588Z,71.52
2022-10-29T04:14:22.121Z,73.50
2022-10-29T04:16:50.051Z,72.80
2022-10-29T04:19:17.958Z,71.87
2022-10-29T04:26:34.677Z,80.62
2022-10-29T04:30:10.414Z,89.43
2022-10-29T04:32:38.448Z,91.19
2022-10-29T04:35:06.798Z,93.02
2022-10-29T04:37:36.871Z,94.61
2022-10-29T04:40:04.688Z,94.89
2022-10-29T04:42:39.636Z,93.90
2022-10-29T04:45:10.907Z,95.54
2022-10-29T04:47:40.856Z,96.71
2022-10-29T04:50:08.662Z,95.10
2022-10-29T04:52:36.253Z,95.03
2022-10-29T04:55:03.746Z,94.41
2022-10-29T04:57:31.122Z,94.18
2022-10-29T04:59:58.632Z,94.38
2022-10-29T05:02:26.086Z,94.14
2022-10-29T05:04:53.860Z,95.34
2022-10-29T05:07:21.731Z,94.79
2022-10-29T05:09:49.325Z,95.93
2022-10-29T05:12:17.311Z,94.54
2022-10-29T05:14:44.853Z,94.48
2022-10-29T05:17:12.339Z,94.45
2022-10-29T05:19:46.280Z,95.49
2022-10-29T05:22:13.814Z,94.70
2022-10-29T05:24:42.105Z,93.79
2022-10-29T05:27:09.497Z,94.63
2022-10-29T05:29:36.963Z,93.39
2022-10-29T05:32:04.960Z,93.90
2022-10-29T05:34:32.385Z,93.32
2022-10-29T05:36:59.738Z,93.37
2022-10-29T05:39:27.457Z,92.79
2022-10-29T05:41:59.846Z,93.46
2022-10-29T05:44:27.368Z,92.62
2022-10-29T05:46:54.718Z,92.57
2022-10-29T05:49:22.188Z,91.33
2022-10-29T05:51:50.889Z,90.51
2022-10-29T05:54:19.034Z,89.56
2022-10-29T05:56:46.443Z,89.50
2022-10-29T05:59:14.013Z,90.50
2022-10-29T06:01:41.511Z,90.14
2022-10-29T06:04:09.082Z,90.71
2022-10-29T06:06:39.656Z,89.69
2022-10-29T06:09:08.144Z,89.38
2022-10-29T06:11:35.852Z,88.77
2022-10-29T06:14:03.191Z,89.84
2022-10-29T06:16:30.509Z,89.70
2022-10-29T06:18:57.781Z,89.87
2022-10-29T06:21:25.133Z,89.44
2022-10-29T06:23:52.420Z,89.53
2022-10-29T06:26:20.115Z,88.99
2022-10-29T06:28:48.179Z,88.30
2022-10-29T06:31:15.682Z,87.80
2022-10-29T06:33:43.065Z,88.58
2022-10-29T06:36:10.728Z,88.09
2022-10-29T06:38:38.181Z,87.84
2022-10-29T06:41:05.993Z,87.44
2022-10-29T06:43:33.710Z,87.63
2022-10-29T06:46:01.288Z,88.10
2022-10-29T06:48:28.732Z,88.00
2022-10-29T06:50:58.629Z,87.04
2022-10-29T06:53:26.790Z,87.29
2022-10-29T06:55:54.214Z,86.20
2022-10-29T06:58:21.973Z,85.95
2022-10-29T07:00:49.449Z,85.10
2022-10-29T07:03:19.092Z,86.21
2022-10-29T07:05:47.502Z,85.03
2022-10-29T07:08:14.966Z,84.35
2022-10-29T07:10:42.611Z,84.31
2022-10-29T07:13:10.090Z,85.50
2022-10-29T07:15:37.525Z,84.33
2022-10-29T07:18:07.355Z,84.20
2022-10-29T07:20:37.588Z,83.26
2022-10-29T07:23:05.489Z,82.70
2022-10-29T07:25:33.939Z,81.59
2022-10-29T07:28:07.006Z,81.59
2022-10-29T07:30:34.865Z,82.42
2022-10-29T07:33:02.235Z,82.95
2022-10-29T07:35:29.759Z,83.63
2022-10-29T07:38:05.316Z,84.01
2022-10-29T07:40:39.733Z,82.15
2022-10-29T07:43:11.119Z,81.99
2022-10-29T07:45:38.256Z,81.89
2022-10-29T07:48:06.939Z,80.74
2022-10-29T07:50:34.168Z,81.44
2022-10-29T07:53:04.028Z,81.59
2022-10-29T07:55:31.615Z,81.44
2022-10-29T07:58:00.438Z,81.55
2022-10-29T08:00:30.390Z,80.46
2022-10-29T08:02:58.293Z,81.14
2022-10-29T08:05:27.362Z,80.06
2022-10-29T08:07:55.614Z,79.78
2022-10-29T08:10:24.390Z,79.55
2022-10-29T08:12:57.755Z,79.39
2022-10-29T08:15:26.813Z,79.06
2022-10-29T08:17:54.364Z,72.43
2022-10-29T08:20:23.524Z,72.99
2022-10-29T08:22:50.813Z,74.65
2022-10-29T08:25:18.514Z,75.83
2022-10-29T08:27:46.267Z,76.43
2022-10-29T08:30:14.078Z,75.67
2022-10-29T08:32:47.339Z,76.44
2022-10-29T08:35:15.177Z,76.78
2022-10-29T08:37:43.608Z,73.45
2022-10-29T08:40:53.338Z,69.39
2022-10-29T08:43:32.716Z,63.27
2022-10-29T08:46:00.179Z,64.75
2022-10-29T08:48:47.311Z,65.83
2022-10-29T08:51:21.978Z,68.36
2022-10-29T08:54:17.058Z,70.29
2022-10-29T08:56:44.272Z,71.25
2022-10-29T08:59:18.259Z,69.72
2022-10-29T09:01:46.288Z,70.02
2022-10-29T09:04:34.628Z,70.46
2022-10-29T09:07:26.001Z,68.23
2022-10-29T09:09:59.201Z,69.02
2022-10-29T09:12:26.395Z,67.89
2022-10-29T09:15:24.559Z,69.53
2022-10-29T09:18:11.856Z,64.85
2022-10-29T09:20:42.125Z,64.69
2022-10-29T09:23:12.524Z,63.75
2022-10-29T09:25:51.097Z,61.16
2022-10-29T09:28:39.296Z,61.97
2022-10-29T09:31:09.555Z,63.00
2022-10-29T09:33:37.926Z,65.27
2022-10-29T09:36:14.646Z,64.67
2022-10-29T09:38:52.123Z,65.15
2022-10-29T09:41:22.012Z,65.58
2022-10-29T09:43:55.899Z,65.69
2022-10-29T09:46:52.846Z,65.98
2022-10-29T09:49:49.081Z,65.33
2022-10-29T09:52:19.089Z,65.21
2022-10-29T09:54:49.877Z,65.43
2022-10-29T09:57:28.111Z,66.12
2022-10-29T10:00:29.466Z,67.54
2022-10-29T10:03:14.949Z,67.11
2022-10-29T10:06:03.882Z,66.19
2022-10-29T10:08:32.648Z,66.82
2022-10-29T10:11:07.542Z,66.46
2022-10-29T10:13:37.975Z,65.66
2022-10-29T10:16:06.629Z,65.90
2022-10-29T10:18:41.412Z,67.45
2022-10-29T10:21:11.597Z,67.36
2022-10-29T10:23:50.019Z,67.79
2022-10-29T10:26:34.812Z,67.86
2022-10-29T10:29:17.248Z,68.41
2022-10-29T10:31:46.838Z,67.71
2022-10-29T10:34:18.536Z,65.61
2022-10-29T10:37:11.015Z,63.30
2022-10-29T10:40:00.515Z,63.12
2022-10-29T10:42:34.934Z,63.78
2022-10-29T10:45:24.578Z,62.75
2022-10-29T10:47:55.366Z,62.77
2022-10-29T10:50:30.279Z,61.35
2022-10-29T10:53:02.445Z,60.88
2022-10-29T10:55:37.874Z,59.52
2022-10-29T10:58:13.930Z,61.66
2022-10-29T11:00:47.797Z,62.68
2022-10-29T11:06:00.960Z,63.69
2022-10-29T11:08:34.566Z,64.22
2022-10-29T11:11:17.448Z,64.15
2022-10-29T11:13:44.706Z,63.61
2022-10-29T11:16:30.704Z,63.93
2022-10-29T11:19:07.268Z,65.13
2022-10-29T11:21:46.505Z,63.29
2022-10-29T11:24:30.291Z,61.27
2022-10-29T11:27:08.067Z,59.57
2022-10-29T11:29:55.089Z,60.28
2022-10-29T11:32:38.907Z,60.54
2022-10-29T11:35:13.725Z,62.21
2022-10-29T11:37:53.050Z,61.19
2022-10-29T11:40:34.127Z,61.30
2022-10-29T11:43:05.699Z,60.62
2022-10-29T11:45:48.412Z,61.44
2022-10-29T11:48:41.247Z,58.81
2022-10-29T11:51:32.666Z,60.36
2022-10-29T11:54:37.519Z,61.37
2022-10-29T11:57:32.895Z,59.70
2022-10-29T12:00:12.410Z,60.58
2022-10-29T12:03:35.728Z,59.82
2022-10-29T12:06:15.676Z,60.70
2022-10-29T12:09:02.029Z,60.19
2022-10-29T12:11:45.198Z,60.20
2022-10-29T12:14:18.206Z,60.40
2022-10-29T12:17:09.535Z,59.48
2022-10-29T12:20:02.116Z,60.35
2022-10-29T12:22:35.131Z,60.43
2022-10-29T12:25:26.560Z,62.37
2022-10-29T12:28:11.972Z,61.06
2022-10-29T12:30:47.293Z,61.28
2022-10-29T12:33:25.201Z,61.87
2022-10-29T12:36:18.982Z,60.86
2022-10-29T12:38:55.009Z,60.72
2022-10-29T12:41:31.562Z,60.95
2022-10-29T12:44:13.464Z,60.58
2022-10-29T12:47:23.661Z,61.34
2022-10-29T12:49:51.295Z,61.55
2022-10-29T12:52:24.632Z,62.00
2022-10-29T12:54:53.448Z,62.10
2022-10-29T12:57:28.924Z,61.13
2022-10-29T13:00:16.422Z,60.09
2022-10-29T13:02:44.541Z,60.20
2022-10-29T13:05:14.974Z,59.83
2022-10-29T13:07:45.374Z,60.31
2022-10-29T13:10:22.170Z,60.80
2022-10-29T13:12:58.307Z,60.50
2022-10-29T13:15:34.162Z,60.13
2022-10-29T13:18:17.958Z,60.83
2022-10-29T13:20:52.152Z,60.54
2022-10-29T13:23:27.174Z,60.45
2022-10-29T13:26:08.334Z,60.28
2022-10-29T13:28:35.576Z,60.19
2022-10-29T13:31:02.839Z,60.18
2022-10-29T13:33:30.071Z,60.19
2022-10-29T13:36:01.185Z,61.47
2022-10-29T13:38:52.037Z,61.39
2022-10-29T13:41:37.092Z,61.42
2022-10-29T13:44:17.271Z,61.33
2022-10-29T13:46:56.659Z,62.19
2022-10-29T13:49:26.151Z,62.02
2022-10-29T13:51:59.544Z,62.01
2022-10-29T13:54:50.766Z,61.72
2022-10-29T13:57:25.631Z,62.30
2022-10-29T14:00:07.287Z,61.58
2022-10-29T14:02:43.819Z,62.12
2022-10-29T14:05:11.213Z,65.30
2022-10-29T14:08:18.900Z,64.14
2022-10-29T14:10:50.372Z,62.94
2022-10-29T14:13:40.963Z,63.40
2022-10-29T14:16:13.539Z,62.61
2022-10-29T14:18:50.984Z,61.91
2022-10-29T14:21:22.103Z,62.33
2022-10-29T14:23:56.079Z,63.07
2022-10-29T14:26:24.227Z,64.42
2022-10-29T14:28:54.888Z,63.66
2022-10-29T14:31:25.728Z,64.12
2022-10-29T14:34:00.702Z,64.17
2022-10-29T14:36:37.285Z,69.42
2022-10-29T14:39:37.011Z,73.92
2022-10-29T14:42:45.230Z,69.10
2022-10-29T14:45:25.190Z,67.64
2022-10-29T14:47:55.644Z,69.37
2022-10-29T14:50:26.330Z,67.33
2022-10-29T14:53:01.283Z,66.97
2022-10-29T14:55:37.467Z,65.23
2022-10-29T14:58:20.877Z,65.11
2022-10-29T15:01:13.264Z,67.01
2022-10-29T15:03:46.632Z,67.49
2022-10-29T15:06:25.122Z,68.30
2022-10-29T15:09:00.823Z,69.13
2022-10-29T15:11:47.467Z,69.47
2022-10-29T15:14:37.274Z,69.74
2022-10-29T15:17:31.042Z,69.76
2022-10-29T15:20:03.435Z,69.71
2022-10-29T15:22:41.313Z,66.46
2022-10-29T15:25:17.935Z,65.57
2022-10-29T15:27:48.647Z,67.88
2022-10-29T15:30:28.155Z,68.71
2022-10-29T15:32:59.360Z,70.16
2022-10-29T15:35:28.171Z,71.24
2022-10-29T15:38:01.057Z,71.08
2022-10-29T15:40:28.687Z,72.06
2022-10-29T15:42:56.201Z,73.02
2022-10-29T15:45:23.659Z,72.83
2022-10-29T15:47:56.995Z,74.26
2022-10-29T15:50:48.511Z,74.35
2022-10-29T15:53:19.336Z,75.90
2022-10-29T15:55:52.213Z,76.44
2022-10-29T15:58:28.677Z,75.44
2022-10-29T16:00:55.959Z,73.01
2022-10-29T16:03:26.180Z,76.03
2022-10-29T16:05:59.300Z,78.14
2022-10-29T16:08:33.422Z,78.85
2022-10-29T16:11:02.197Z,79.75
2022-10-29T16:13:33.011Z,79.82
2022-10-29T16:16:01.214Z,80.21
2022-10-29T16:18:30.973Z,81.61
2022-10-29T16:21:00.800Z,83.36
2022-10-29T16:23:28.028Z,82.03
2022-10-29T16:26:01.052Z,82.37
2022-10-29T16:28:31.806Z,82.40
2022-10-29T16:31:03.023Z,82.30
2022-10-29T16:33:30.422Z,82.67
2022-10-29T16:35:57.731Z,81.75
2022-10-29T16:38:31.384Z,82.41
2022-10-29T16:41:02.181Z,82.69
2022-10-29T16:43:29.511Z,82.63
2022-10-29T16:45:58.574Z,83.44
2022-10-29T16:48:30.999Z,84.99
2022-10-29T16:51:04.041Z,83.89
2022-10-29T16:53:31.415Z,85.28
2022-10-29T16:56:01.780Z,84.98
2022-10-29T16:58:29.114Z,84.98
2022-10-29T17:01:05.048Z,85.79
2022-10-29T17:03:32.807Z,87.14
2022-10-29T17:06:08.820Z,85.67
2022-10-29T17:08:37.687Z,85.66
2022-10-29T17:11:08.052Z,85.97
2022-10-29T17:13:38.574Z,86.43
2022-10-29T17:16:08.071Z,87.02
2022-10-29T17:18:38.194Z,87.07
2022-10-29T17:21:05.917Z,86.20
2022-10-29T17:23:33.517Z,86.42
2022-10-29T17:26:01.330Z,88.05
2022-10-29T17:28:28.973Z,87.38
2022-10-29T17:30:56.336Z,89.03
2022-10-29T17:33:23.780Z,87.33
2022-10-29T17:36:05.757Z,87.47
2022-10-29T17:38:35.928Z,88.32
2022-10-29T17:41:07.455Z,87.55
2022-10-29T17:43:34.711Z,87.43
2022-10-29T17:46:04.711Z,87.59
2022-10-29T17:48:32.036Z,87.75
2022-10-29T17:51:01.344Z,88.89
2022-10-29T17:53:30.008Z,89.30
2022-10-29T17:56:00.821Z,89.00
2022-10-29T17:58:28.334Z,88.95
2022-10-29T18:01:03.629Z,89.05
2022-10-29T18:03:34.150Z,88.33
2022-10-29T18:06:02.559Z,89.45
2022-10-29T18:08:34.794Z,91.07
2022-10-29T18:11:10.083Z,89.72
2022-10-29T18:13:41.714Z,90.64
2022-10-29T18:16:11.046Z,89.73
2022-10-29T18:18:54.379Z,89.91
2022-10-29T18:21:27.888Z,92.10
2022-10-29T18:23:55.176Z,90.97
2022-10-29T18:26:36.149Z,91.08
2022-10-29T18:29:07.441Z,91.90
2022-10-29T18:31:36.686Z,90.64
2022-10-29T18:34:06.778Z,90.00
2022-10-29T18:36:35.206Z,90.31
2022-10-29T18:39:04.085Z,91.05
2022-10-29T18:41:31.615Z,91.70
2022-10-29T18:44:01.883Z,91.18
2022-10-29T18:46:29.186Z,91.18
2022-10-29T18:48:56.455Z,91.77
2022-10-29T18:51:27.265Z,91.13
2022-10-29T18:53:55.819Z,91.62
2022-10-29T18:56:27.157Z,92.21
2022-10-29T18:59:00.722Z,91.03
2022-10-29T19:01:30.719Z,90.51
2022-10-29T19:04:00.435Z,90.55
2022-10-29T19:06:31.448Z,90.43
2022-10-29T19:09:05.069Z,91.33
2022-10-29T19:11:32.507Z,90.07
2022-10-29T19:14:03.076Z,90.49
2022-10-29T19:16:31.907Z,91.46
2022-10-29T19:21:41.433Z,90.62
2022-10-29T19:24:14.850Z,91.53
2022-10-29T19:26:44.710Z,92.34
2022-10-29T19:29:15.401Z,91.78
2022-10-29T19:31:44.906Z,91.56
2022-10-29T19:34:12.259Z,92.08
2022-10-29T19:36:39.610Z,91.99
2022-10-29T19:39:07.641Z,91.43
2022-10-29T19:41:35.193Z,92.17
2022-10-29T19:44:03.229Z,91.54
2022-10-29T19:46:30.939Z,91.40
2022-10-29T19:48:58.616Z,92.16
2022-10-29T19:51:26.183Z,91.75
2022-10-29T19:53:53.489Z,91.52
2022-10-29T19:56:21.535Z,91.53
2022-10-29T19:58:51.391Z,91.28
2022-10-29T20:01:19.164Z,91.83
2022-10-29T20:03:47.520Z,91.96
2022-10-29T20:06:15.480Z,92.26
2022-10-29T20:08:43.273Z,92.27
2022-10-29T20:11:10.625Z,92.37
2022-10-29T20:13:38.053Z,92.92
2022-10-29T20:16:15.938Z,93.08
2022-10-29T20:18:43.709Z,92.51
2022-10-29T20:21:12.267Z,92.88
2022-10-29T20:23:39.956Z,93.14
2022-10-29T20:26:07.822Z,93.10
2022-10-29T20:28:35.379Z,92.93
2022-10-29T20:31:17.653Z,93.84
2022-10-29T20:33:52.533Z,93.69
2022-10-29T20:36:20.207Z,93.78
2022-10-29T20:38:49.035Z,93.96
2022-10-29T20:41:17.083Z,93.95
2022-10-29T20:44:01.059Z,93.65
2022-10-29T20:46:29.034Z,93.00
2022-10-29T20:48:56.431Z,92.78
2022-10-29T20:51:24.833Z,93.69
2022-10-29T20:53:52.839Z,93.42
2022-10-29T20:56:24.455Z,94.02
2022-10-29T20:58:52.076Z,94.43
2022-10-29T21:01:21.340Z,93.83
2022-10-29T21:03:49.846Z,93.98
2022-10-29T21:06:17.808Z,94.33
2022-10-29T21:08:46.666Z,94.95
2022-10-29T21:11:15.799Z,94.85
2022-10-29T21:13:43.177Z,94.98
2022-10-29T21:16:15.213Z,94.37
2022-10-29T21:18:52.904Z,95.26
2022-10-29T21:21:20.759Z,94.38
2022-10-29T21:23:51.074Z,94.02
2022-10-29T21:26:23.698Z,94.82
2022-10-29T21:28:52.484Z,94.55
2022-10-29T21:31:21.363Z,95.40
2022-10-29T21:33:50.306Z,94.43
2022-10-29T21:36:17.636Z,94.01
2022-10-29T21:38:44.907Z,94.87
2022-10-29T21:41:12.176Z,94.05
2022-10-29T21:43:39.651Z,94.29
2022-10-29T21:46:07.406Z,94.98
2022-10-29T21:48:34.748Z,94.11
2022-10-29T21:51:07.942Z,93.63
2022-10-29T21:53:38.265Z,94.17
2022-10-29T21:56:08.054Z,95.15
2022-10-29T21:58:35.406Z,95.09
2022-10-29T22:01:07.126Z,95.88
2022-10-29T22:03:36.224Z,95.45
2022-10-29T22:06:05.601Z,96.40
2022-10-29T22:08:34.151Z,96.60
2022-10-29T22:11:01.924Z,96.45
2022-10-29T22:13:30.741Z,95.98
2022-10-29T22:15:58.333Z,96.29
2022-10-29T22:18:26.789Z,97.00
2022-10-29T22:21:13.895Z,97.56
2022-10-29T22:23:53.495Z,96.64
2022-10-29T22:26:24.840Z,96.43
2022-10-29T22:28:53.451Z,96.41
2022-10-29T22:31:22.483Z,96.67
2022-10-29T22:33:50.549Z,97.12
2022-10-29T22:36:21.086Z,97.47
2022-10-29T22:39:00.156Z,97.38
2022-10-29T22:41:28.573Z,98.02
2022-10-29T22:43:56.815Z,98.23
2022-10-29T22:46:27.844Z,98.51
2022-10-29T22:48:55.972Z,97.67
2022-10-29T22:51:28.623Z,97.14
2022-10-29T22:53:56.536Z,97.28
2022-10-29T22:56:25.490Z,97.74
2022-10-29T22:58:52.895Z,97.95
2022-10-29T23:01:22.800Z,97.58
2022-10-29T23:03:50.769Z,96.65
2022-10-29T23:06:20.228Z,96.22
2022-10-29T23:08:50.465Z,96.86
2022-10-29T23:11:20.712Z,97.34
2022-10-29T23:13:53.157Z,97.71
2022-10-29T23:16:21.590Z,97.63
2022-10-29T23:18:50.365Z,97.92
2022-10-29T23:21:18.094Z,97.95
2022-10-29T23:23:46.093Z,98.04
2022-10-29T23:26:13.644Z,97.41
2022-10-29T23:28:41.397Z,98.06
2022-10-29T23:31:15.129Z,97.95
2022-10-29T23:33:47.209Z,98.10
2022-10-29T23:36:16.625Z,97.36
2022-10-29T23:38:44.033Z,97.62
2022-10-29T23:41:11.911Z,97.06
2022-10-29T23:43:39.297Z,98.21
2022-10-29T23:46:06.974Z,97.73
2022-10-29T23:48:34.251Z,97.13
2022-10-29T23:51:01.616Z,97.85
2022-10-29T23:53:28.923Z,98.76
2022-10-29T23:55:56.377Z,97.76
2022-10-29T23:58:23.759Z,97.12
